sensor_id;sensor_type;location;lat;lon;timestamp;temperature;humidity
3005;DHT22;1512;51.486;6.610;2023-03-29T00:01:08;6.50;1.00
3005;DHT22;1512;51.486;6.610;2023-03-29T00:05:19;6.50;1.00
3005;DHT22;1512;51.486;6.610;2023-03-29T00:09:31;6.50;1.00
3005;DHT22;1512;51.486;6.610;2023-03-29T00:13:40;6.60;1.00
3005;DHT22;1512;51.486;6.610;2023-03-29T00:17:48;6.60;1.00
3005;DHT22;1512;51.486;6.610;2023-03-29T00:21:57;6.60;1.00
3005;DHT22;1512;51.486;6.610;2023-03-29T00:26:06;6.60;1.00
3005;DHT22;1512;51.486;6.610;2023-03-29T00:30:15;6.60;1.00
3005;DHT22;1512;51.486;6.610;2023-03-29T00:34:43;6.60;1.00
3005;DHT22;1512;51.486;6.610;2023-03-29T00:38:54;6.60;1.00
3005;DHT22;1512;51.486;6.610;2023-03-29T00:43:04;6.60;1.00
3005;DHT22;1512;51.486;6.610;2023-03-29T00:47:13;6.60;1.00
3005;DHT22;1512;51.486;6.610;2023-03-29T00:51:24;6.60;1.00
3005;DHT22;1512;51.486;6.610;2023-03-29T00:55:36;6.60;1.00
3005;DHT22;1512;51.486;6.610;2023-03-29T00:59:46;6.60;1.00
3005;DHT22;1512;51.486;6.610;2023-03-29T01:04:04;6.60;1.00
3005;DHT22;1512;51.486;6.610;2023-03-29T01:08:29;6.60;1.00
3005;DHT22;1512;51.486;6.610;2023-03-29T01:12:44;6.60;1.00
3005;DHT22;1512;51.486;6.610;2023-03-29T01:16:53;6.60;1.00
3005;DHT22;1512;51.486;6.610;2023-03-29T01:21:19;6.60;1.00
3005;DHT22;1512;51.486;6.610;2023-03-29T01:25:40;6.60;1.00
3005;DHT22;1512;51.486;6.610;2023-03-29T01:29:50;6.60;1.00
3005;DHT22;1512;51.486;6.610;2023-03-29T01:34:09;6.60;1.00
3005;DHT22;1512;51.486;6.610;2023-03-29T01:38:49;6.60;1.00
3005;DHT22;1512;51.486;6.610;2023-03-29T01:47:23;6.60;1.00
3005;DHT22;1512;51.486;6.610;2023-03-29T01:56:07;6.70;1.00
3005;DHT22;1512;51.486;6.610;2023-03-29T02:00:19;6.70;1.00
3005;DHT22;1512;51.486;6.610;2023-03-29T02:04:39;6.70;1.00
3005;DHT22;1512;51.486;6.610;2023-03-29T02:08:51;6.70;1.00
3005;DHT22;1512;51.486;6.610;2023-03-29T02:13:00;6.70;1.00
3005;DHT22;1512;51.486;6.610;2023-03-29T02:17:21;6.70;1.00
3005;DHT22;1512;51.486;6.610;2023-03-29T02:21:33;6.70;1.00
3005;DHT22;1512;51.486;6.610;2023-03-29T02:25:42;6.70;1.00
3005;DHT22;1512;51.486;6.610;2023-03-29T02:29:52;6.70;1.00
3005;DHT22;1512;51.486;6.610;2023-03-29T02:34:07;6.70;1.00
3005;DHT22;1512;51.486;6.610;2023-03-29T02:42:31;6.70;1.00
3005;DHT22;1512;51.486;6.610;2023-03-29T02:46:40;6.80;1.00
3005;DHT22;1512;51.486;6.610;2023-03-29T02:50:52;6.70;1.00
3005;DHT22;1512;51.486;6.610;2023-03-29T02:55:04;6.70;1.00
3005;DHT22;1512;51.486;6.610;2023-03-29T02:59:15;6.70;1.00
3005;DHT22;1512;51.486;6.610;2023-03-29T03:03:25;6.70;1.00
3005;DHT22;1512;51.486;6.610;2023-03-29T03:07:34;6.80;1.00
3005;DHT22;1512;51.486;6.610;2023-03-29T03:11:44;6.80;1.00
3005;DHT22;1512;51.486;6.610;2023-03-29T03:15:52;6.80;1.00
3005;DHT22;1512;51.486;6.610;2023-03-29T03:20:01;6.70;1.00
3005;DHT22;1512;51.486;6.610;2023-03-29T03:24:12;6.80;1.00
3005;DHT22;1512;51.486;6.610;2023-03-29T03:28:22;6.80;1.00
3005;DHT22;1512;51.486;6.610;2023-03-29T03:32:33;6.80;1.00
3005;DHT22;1512;51.486;6.610;2023-03-29T03:36:41;6.80;1.00
3005;DHT22;1512;51.486;6.610;2023-03-29T03:40:55;6.80;1.00
3005;DHT22;1512;51.486;6.610;2023-03-29T03:45:04;6.80;1.00
3005;DHT22;1512;51.486;6.610;2023-03-29T03:49:12;6.90;1.00
3005;DHT22;1512;51.486;6.610;2023-03-29T03:53:22;6.90;1.00
3005;DHT22;1512;51.486;6.610;2023-03-29T03:57:31;6.90;1.00
3005;DHT22;1512;51.486;6.610;2023-03-29T04:01:40;6.90;1.00
3005;DHT22;1512;51.486;6.610;2023-03-29T04:05:51;6.90;1.00
3005;DHT22;1512;51.486;6.610;2023-03-29T04:10:00;6.80;1.00
3005;DHT22;1512;51.486;6.610;2023-03-29T04:14:09;6.80;4.60
3005;DHT22;1512;51.486;6.610;2023-03-29T04:18:17;6.90;95.20
3005;DHT22;1512;51.486;6.610;2023-03-29T04:22:27;6.80;99.90
3005;DHT22;1512;51.486;6.610;2023-03-29T04:26:36;6.90;99.90
3005;DHT22;1512;51.486;6.610;2023-03-29T04:30:45;6.80;99.90
3005;DHT22;1512;51.486;6.610;2023-03-29T04:34:55;6.80;99.90
3005;DHT22;1512;51.486;6.610;2023-03-29T04:39:04;6.80;99.90
3005;DHT22;1512;51.486;6.610;2023-03-29T04:43:14;6.90;1.00
3005;DHT22;1512;51.486;6.610;2023-03-29T04:47:23;6.80;1.00
3005;DHT22;1512;51.486;6.610;2023-03-29T04:51:32;6.90;1.00
3005;DHT22;1512;51.486;6.610;2023-03-29T04:55:40;6.80;1.00
3005;DHT22;1512;51.486;6.610;2023-03-29T04:59:49;6.90;1.00
3005;DHT22;1512;51.486;6.610;2023-03-29T05:03:58;6.90;1.00
3005;DHT22;1512;51.486;6.610;2023-03-29T05:08:07;6.80;1.00
3005;DHT22;1512;51.486;6.610;2023-03-29T05:12:16;6.90;1.00
3005;DHT22;1512;51.486;6.610;2023-03-29T05:16:24;6.90;1.00
3005;DHT22;1512;51.486;6.610;2023-03-29T05:20:35;6.90;1.00
3005;DHT22;1512;51.486;6.610;2023-03-29T05:24:44;6.90;1.00
3005;DHT22;1512;51.486;6.610;2023-03-29T05:28:53;6.90;1.00
3005;DHT22;1512;51.486;6.610;2023-03-29T05:33:02;6.90;58.40
3005;DHT22;1512;51.486;6.610;2023-03-29T05:37:12;6.90;99.90
3005;DHT22;1512;51.486;6.610;2023-03-29T05:41:21;6.90;99.90
3005;DHT22;1512;51.486;6.610;2023-03-29T05:45:31;7.00;99.90
3005;DHT22;1512;51.486;6.610;2023-03-29T05:49:40;7.00;1.00
3005;DHT22;1512;51.486;6.610;2023-03-29T05:53:50;7.10;1.00
3005;DHT22;1512;51.486;6.610;2023-03-29T05:57:58;7.10;1.00
3005;DHT22;1512;51.486;6.610;2023-03-29T06:02:08;7.20;1.00
3005;DHT22;1512;51.486;6.610;2023-03-29T06:06:17;7.10;1.00
3005;DHT22;1512;51.486;6.610;2023-03-29T06:10:28;7.10;99.90
3005;DHT22;1512;51.486;6.610;2023-03-29T06:14:56;7.10;99.90
3005;DHT22;1512;51.486;6.610;2023-03-29T06:19:06;7.10;99.90
3005;DHT22;1512;51.486;6.610;2023-03-29T06:23:15;7.10;99.90
3005;DHT22;1512;51.486;6.610;2023-03-29T06:27:24;7.20;99.90
3005;DHT22;1512;51.486;6.610;2023-03-29T06:31:33;7.20;99.90
3005;DHT22;1512;51.486;6.610;2023-03-29T06:35:44;7.30;1.00
3005;DHT22;1512;51.486;6.610;2023-03-29T06:39:53;7.30;1.00
3005;DHT22;1512;51.486;6.610;2023-03-29T06:44:04;7.40;1.00
3005;DHT22;1512;51.486;6.610;2023-03-29T06:48:12;7.40;1.00
3005;DHT22;1512;51.486;6.610;2023-03-29T06:52:21;7.40;99.90
3005;DHT22;1512;51.486;6.610;2023-03-29T06:56:29;7.50;56.20
3005;DHT22;1512;51.486;6.610;2023-03-29T07:00:38;7.50;1.00
3005;DHT22;1512;51.486;6.610;2023-03-29T07:04:48;7.50;1.00
3005;DHT22;1512;51.486;6.610;2023-03-29T07:08:58;7.50;1.00
3005;DHT22;1512;51.486;6.610;2023-03-29T07:13:10;7.60;1.00
3005;DHT22;1512;51.486;6.610;2023-03-29T07:17:19;7.60;99.90
3005;DHT22;1512;51.486;6.610;2023-03-29T07:21:29;7.70;23.20
3005;DHT22;1512;51.486;6.610;2023-03-29T07:25:41;7.70;1.00
3005;DHT22;1512;51.486;6.610;2023-03-29T07:29:49;7.70;1.00
3005;DHT22;1512;51.486;6.610;2023-03-29T07:33:58;7.80;1.00
3005;DHT22;1512;51.486;6.610;2023-03-29T07:38:07;7.80;1.00
3005;DHT22;1512;51.486;6.610;2023-03-29T07:42:16;7.80;1.00
3005;DHT22;1512;51.486;6.610;2023-03-29T07:46:24;7.90;1.00
3005;DHT22;1512;51.486;6.610;2023-03-29T07:50:33;7.90;1.00
3005;DHT22;1512;51.486;6.610;2023-03-29T07:54:42;8.00;99.90
3005;DHT22;1512;51.486;6.610;2023-03-29T07:58:50;8.00;99.90
3005;DHT22;1512;51.486;6.610;2023-03-29T08:02:59;8.10;1.00
3005;DHT22;1512;51.486;6.610;2023-03-29T08:07:11;8.10;99.90
3005;DHT22;1512;51.486;6.610;2023-03-29T08:11:20;8.20;99.90
3005;DHT22;1512;51.486;6.610;2023-03-29T08:15:30;8.30;99.90
3005;DHT22;1512;51.486;6.610;2023-03-29T08:19:38;8.30;99.90
3005;DHT22;1512;51.486;6.610;2023-03-29T08:23:49;8.40;99.90
3005;DHT22;1512;51.486;6.610;2023-03-29T08:27:58;8.50;99.90
3005;DHT22;1512;51.486;6.610;2023-03-29T08:32:06;8.40;1.00
3005;DHT22;1512;51.486;6.610;2023-03-29T08:36:15;8.40;1.00
3005;DHT22;1512;51.486;6.610;2023-03-29T08:40:26;8.40;99.90
3005;DHT22;1512;51.486;6.610;2023-03-29T08:44:55;8.50;1.00
3005;DHT22;1512;51.486;6.610;2023-03-29T08:49:04;8.60;99.90
3005;DHT22;1512;51.486;6.610;2023-03-29T08:53:26;8.60;99.90
3005;DHT22;1512;51.486;6.610;2023-03-29T08:57:36;8.60;99.90
3005;DHT22;1512;51.486;6.610;2023-03-29T09:01:44;8.70;99.90
3005;DHT22;1512;51.486;6.610;2023-03-29T09:05:58;8.80;1.00
3005;DHT22;1512;51.486;6.610;2023-03-29T09:10:13;8.90;99.90
3005;DHT22;1512;51.486;6.610;2023-03-29T09:23:46;9.40;1.00
3005;DHT22;1512;51.486;6.610;2023-03-29T09:28:04;9.50;1.00
3005;DHT22;1512;51.486;6.610;2023-03-29T09:32:24;9.60;99.90
3005;DHT22;1512;51.486;6.610;2023-03-29T09:36:35;9.70;1.00
3005;DHT22;1512;51.486;6.610;2023-03-29T09:41:03;9.90;99.90
3005;DHT22;1512;51.486;6.610;2023-03-29T09:45:08;10.00;99.90
3005;DHT22;1512;51.486;6.610;2023-03-29T09:49:20;10.00;99.90
3005;DHT22;1512;51.486;6.610;2023-03-29T09:53:29;10.00;99.90
3005;DHT22;1512;51.486;6.610;2023-03-29T09:57:38;10.20;99.90
3005;DHT22;1512;51.486;6.610;2023-03-29T10:01:47;10.30;99.90
3005;DHT22;1512;51.486;6.610;2023-03-29T10:05:58;10.40;99.90
3005;DHT22;1512;51.486;6.610;2023-03-29T10:10:19;10.50;93.60
3005;DHT22;1512;51.486;6.610;2023-03-29T10:14:44;10.60;99.90
3005;DHT22;1512;51.486;6.610;2023-03-29T10:18:53;10.90;1.00
3005;DHT22;1512;51.486;6.610;2023-03-29T10:23:03;11.20;1.00
3005;DHT22;1512;51.486;6.610;2023-03-29T10:27:12;11.30;1.00
3005;DHT22;1512;51.486;6.610;2023-03-29T10:31:22;11.40;1.00
3005;DHT22;1512;51.486;6.610;2023-03-29T10:35:38;11.40;1.00
3005;DHT22;1512;51.486;6.610;2023-03-29T10:39:53;11.40;1.00
3005;DHT22;1512;51.486;6.610;2023-03-29T10:44:03;11.30;1.00
3005;DHT22;1512;51.486;6.610;2023-03-29T10:48:13;11.30;1.00
3005;DHT22;1512;51.486;6.610;2023-03-29T10:52:23;11.30;1.00
3005;DHT22;1512;51.486;6.610;2023-03-29T10:56:46;11.30;1.00
3005;DHT22;1512;51.486;6.610;2023-03-29T11:00:57;11.30;1.00
3005;DHT22;1512;51.486;6.610;2023-03-29T11:09:58;11.50;1.00
3005;DHT22;1512;51.486;6.610;2023-03-29T11:18:51;11.90;1.00
3005;DHT22;1512;51.486;6.610;2023-03-29T11:23:03;12.30;1.00
3005;DHT22;1512;51.486;6.610;2023-03-29T11:27:18;12.40;1.00
3005;DHT22;1512;51.486;6.610;2023-03-29T11:36:13;12.50;1.00
3005;DHT22;1512;51.486;6.610;2023-03-29T11:44:51;12.60;1.00
3005;DHT22;1512;51.486;6.610;2023-03-29T11:53:40;12.80;1.00
3005;DHT22;1512;51.486;6.610;2023-03-29T11:58:08;12.90;1.00
3005;DHT22;1512;51.486;6.610;2023-03-29T12:07:18;12.80;1.00
3005;DHT22;1512;51.486;6.610;2023-03-29T12:15:23;13.00;1.00
3005;DHT22;1512;51.486;6.610;2023-03-29T12:24:18;12.90;1.00
3005;DHT22;1512;51.486;6.610;2023-03-29T12:42:19;13.50;1.00
3005;DHT22;1512;51.486;6.610;2023-03-29T12:46:53;13.60;1.00
3005;DHT22;1512;51.486;6.610;2023-03-29T12:51:03;13.70;1.00
3005;DHT22;1512;51.486;6.610;2023-03-29T12:56:06;13.80;1.00
3005;DHT22;1512;51.486;6.610;2023-03-29T12:59:42;13.80;1.00
3005;DHT22;1512;51.486;6.610;2023-03-29T13:08:24;14.10;1.00
3005;DHT22;1512;51.486;6.610;2023-03-29T13:12:42;14.00;1.00
3005;DHT22;1512;51.486;6.610;2023-03-29T13:16:53;13.90;1.00
3005;DHT22;1512;51.486;6.610;2023-03-29T13:21:17;14.00;1.00
3005;DHT22;1512;51.486;6.610;2023-03-29T13:38:54;14.30;1.00
3005;DHT22;1512;51.486;6.610;2023-03-29T13:43:01;14.40;1.00
3005;DHT22;1512;51.486;6.610;2023-03-29T13:47:27;14.40;1.00
3005;DHT22;1512;51.486;6.610;2023-03-29T13:51:52;14.40;1.00
3005;DHT22;1512;51.486;6.610;2023-03-29T13:55:57;14.40;1.00
3005;DHT22;1512;51.486;6.610;2023-03-29T14:00:22;14.50;1.00
3005;DHT22;1512;51.486;6.610;2023-03-29T14:04:30;14.50;1.00
3005;DHT22;1512;51.486;6.610;2023-03-29T14:08:42;14.50;1.00
3005;DHT22;1512;51.486;6.610;2023-03-29T14:12:52;14.50;1.00
3005;DHT22;1512;51.486;6.610;2023-03-29T14:17:03;14.40;1.00
3005;DHT22;1512;51.486;6.610;2023-03-29T14:21:13;14.40;1.00
3005;DHT22;1512;51.486;6.610;2023-03-29T14:25:23;14.40;1.00
3005;DHT22;1512;51.486;6.610;2023-03-29T14:29:33;14.40;1.00
3005;DHT22;1512;51.486;6.610;2023-03-29T14:33:42;14.60;1.00
3005;DHT22;1512;51.486;6.610;2023-03-29T14:37:50;14.60;1.00
3005;DHT22;1512;51.486;6.610;2023-03-29T14:41:59;14.60;1.00
3005;DHT22;1512;51.486;6.610;2023-03-29T14:46:09;14.70;1.00
3005;DHT22;1512;51.486;6.610;2023-03-29T14:50:22;14.70;1.00
3005;DHT22;1512;51.486;6.610;2023-03-29T14:54:32;14.70;1.00
3005;DHT22;1512;51.486;6.610;2023-03-29T14:58:44;14.60;1.00
3005;DHT22;1512;51.486;6.610;2023-03-29T15:02:58;14.70;1.00
3005;DHT22;1512;51.486;6.610;2023-03-29T15:07:08;14.60;1.00
3005;DHT22;1512;51.486;6.610;2023-03-29T15:11:24;14.60;1.00
3005;DHT22;1512;51.486;6.610;2023-03-29T15:15:36;14.70;1.00
3005;DHT22;1512;51.486;6.610;2023-03-29T15:19:46;14.70;1.00
3005;DHT22;1512;51.486;6.610;2023-03-29T15:23:57;14.60;1.00
3005;DHT22;1512;51.486;6.610;2023-03-29T15:28:19;14.70;1.00
3005;DHT22;1512;51.486;6.610;2023-03-29T15:32:24;14.80;1.00
3005;DHT22;1512;51.486;6.610;2023-03-29T15:36:34;14.70;1.00
3005;DHT22;1512;51.486;6.610;2023-03-29T15:40:46;14.70;1.00
3005;DHT22;1512;51.486;6.610;2023-03-29T15:44:55;14.60;1.00
3005;DHT22;1512;51.486;6.610;2023-03-29T15:49:08;14.50;1.00
3005;DHT22;1512;51.486;6.610;2023-03-29T15:53:15;14.60;1.00
3005;DHT22;1512;51.486;6.610;2023-03-29T16:01:36;14.70;1.00
3005;DHT22;1512;51.486;6.610;2023-03-29T16:05:46;14.70;1.00
3005;DHT22;1512;51.486;6.610;2023-03-29T16:09:54;14.80;1.00
3005;DHT22;1512;51.486;6.610;2023-03-29T16:14:05;14.90;1.00
3005;DHT22;1512;51.486;6.610;2023-03-29T16:18:14;14.90;1.00
3005;DHT22;1512;51.486;6.610;2023-03-29T16:22:23;14.80;1.00
3005;DHT22;1512;51.486;6.610;2023-03-29T16:26:31;14.80;1.00
3005;DHT22;1512;51.486;6.610;2023-03-29T16:30:42;14.70;1.00
3005;DHT22;1512;51.486;6.610;2023-03-29T16:34:51;14.60;1.00
3005;DHT22;1512;51.486;6.610;2023-03-29T16:39:00;14.40;1.00
3005;DHT22;1512;51.486;6.610;2023-03-29T16:43:14;14.40;1.00
3005;DHT22;1512;51.486;6.610;2023-03-29T16:47:22;14.30;1.00
3005;DHT22;1512;51.486;6.610;2023-03-29T16:51:31;14.20;1.00
3005;DHT22;1512;51.486;6.610;2023-03-29T16:55:40;14.10;1.00
3005;DHT22;1512;51.486;6.610;2023-03-29T16:59:49;14.10;1.00
3005;DHT22;1512;51.486;6.610;2023-03-29T17:03:59;14.10;1.00
3005;DHT22;1512;51.486;6.610;2023-03-29T17:08:08;14.10;1.00
3005;DHT22;1512;51.486;6.610;2023-03-29T17:12:17;14.00;1.00
3005;DHT22;1512;51.486;6.610;2023-03-29T17:16:27;13.90;1.00
3005;DHT22;1512;51.486;6.610;2023-03-29T17:20:37;13.90;1.00
3005;DHT22;1512;51.486;6.610;2023-03-29T17:24:46;13.90;1.00
3005;DHT22;1512;51.486;6.610;2023-03-29T17:28:55;13.80;1.00
3005;DHT22;1512;51.486;6.610;2023-03-29T17:33:04;13.80;1.00
3005;DHT22;1512;51.486;6.610;2023-03-29T17:37:14;13.80;1.00
3005;DHT22;1512;51.486;6.610;2023-03-29T17:41:24;13.80;1.00
3005;DHT22;1512;51.486;6.610;2023-03-29T17:45:35;13.70;1.00
3005;DHT22;1512;51.486;6.610;2023-03-29T17:49:43;13.60;1.00
3005;DHT22;1512;51.486;6.610;2023-03-29T17:53:52;13.60;1.00
3005;DHT22;1512;51.486;6.610;2023-03-29T17:58:03;13.50;1.00
3005;DHT22;1512;51.486;6.610;2023-03-29T18:02:19;13.40;1.00
3005;DHT22;1512;51.486;6.610;2023-03-29T18:06:24;13.30;1.00
3005;DHT22;1512;51.486;6.610;2023-03-29T18:10:37;13.30;1.00
3005;DHT22;1512;51.486;6.610;2023-03-29T18:14:52;13.30;1.00
3005;DHT22;1512;51.486;6.610;2023-03-29T18:19:07;13.20;1.00
3005;DHT22;1512;51.486;6.610;2023-03-29T18:23:17;13.10;1.00
3005;DHT22;1512;51.486;6.610;2023-03-29T18:27:25;13.10;1.00
3005;DHT22;1512;51.486;6.610;2023-03-29T18:31:34;13.10;1.00
3005;DHT22;1512;51.486;6.610;2023-03-29T18:35:50;13.00;1.00
3005;DHT22;1512;51.486;6.610;2023-03-29T18:39:59;13.00;1.00
3005;DHT22;1512;51.486;6.610;2023-03-29T18:44:08;12.90;1.00
3005;DHT22;1512;51.486;6.610;2023-03-29T18:48:36;13.00;1.00
3005;DHT22;1512;51.486;6.610;2023-03-29T18:52:45;13.00;1.00
3005;DHT22;1512;51.486;6.610;2023-03-29T18:56:54;13.00;1.00
3005;DHT22;1512;51.486;6.610;2023-03-29T19:01:05;13.00;1.00
3005;DHT22;1512;51.486;6.610;2023-03-29T19:05:14;13.00;1.00
3005;DHT22;1512;51.486;6.610;2023-03-29T19:09:23;13.00;1.00
3005;DHT22;1512;51.486;6.610;2023-03-29T19:13:32;13.00;1.00
3005;DHT22;1512;51.486;6.610;2023-03-29T19:17:41;13.00;1.00
3005;DHT22;1512;51.486;6.610;2023-03-29T19:21:49;13.00;1.00
3005;DHT22;1512;51.486;6.610;2023-03-29T19:26:01;13.00;1.00
3005;DHT22;1512;51.486;6.610;2023-03-29T19:30:10;13.00;1.00
3005;DHT22;1512;51.486;6.610;2023-03-29T19:34:19;13.10;1.00
3005;DHT22;1512;51.486;6.610;2023-03-29T19:38:29;13.00;1.00
3005;DHT22;1512;51.486;6.610;2023-03-29T19:42:39;12.90;1.00
3005;DHT22;1512;51.486;6.610;2023-03-29T19:46:48;12.80;1.00
3005;DHT22;1512;51.486;6.610;2023-03-29T19:51:01;12.90;1.00
3005;DHT22;1512;51.486;6.610;2023-03-29T19:55:10;12.80;1.00
3005;DHT22;1512;51.486;6.610;2023-03-29T19:59:19;12.80;1.00
3005;DHT22;1512;51.486;6.610;2023-03-29T20:03:27;12.80;1.00
3005;DHT22;1512;51.486;6.610;2023-03-29T20:07:36;12.80;1.00
3005;DHT22;1512;51.486;6.610;2023-03-29T20:11:45;12.80;1.00
3005;DHT22;1512;51.486;6.610;2023-03-29T20:15:54;12.70;1.00
3005;DHT22;1512;51.486;6.610;2023-03-29T20:20:03;12.70;1.00
3005;DHT22;1512;51.486;6.610;2023-03-29T20:24:14;12.60;7.30
3005;DHT22;1512;51.486;6.610;2023-03-29T20:28:23;12.50;20.80
3005;DHT22;1512;51.486;6.610;2023-03-29T20:32:32;12.50;29.80
3005;DHT22;1512;51.486;6.610;2023-03-29T20:36:41;12.40;74.10
3005;DHT22;1512;51.486;6.610;2023-03-29T20:40:50;12.30;95.90
3005;DHT22;1512;51.486;6.610;2023-03-29T20:45:00;12.30;99.90
3005;DHT22;1512;51.486;6.610;2023-03-29T20:49:08;12.30;99.90
3005;DHT22;1512;51.486;6.610;2023-03-29T20:53:17;12.20;99.90
3005;DHT22;1512;51.486;6.610;2023-03-29T20:57:27;12.20;99.90
3005;DHT22;1512;51.486;6.610;2023-03-29T21:01:37;12.10;99.90
3005;DHT22;1512;51.486;6.610;2023-03-29T21:05:52;12.00;99.90
3005;DHT22;1512;51.486;6.610;2023-03-29T21:09:59;12.00;99.90
3005;DHT22;1512;51.486;6.610;2023-03-29T21:14:08;12.00;99.90
3005;DHT22;1512;51.486;6.610;2023-03-29T21:18:16;12.00;99.90
3005;DHT22;1512;51.486;6.610;2023-03-29T21:22:25;12.00;99.90
3005;DHT22;1512;51.486;6.610;2023-03-29T21:26:34;12.00;99.90
3005;DHT22;1512;51.486;6.610;2023-03-29T21:30:43;11.90;99.90
3005;DHT22;1512;51.486;6.610;2023-03-29T21:34:51;11.90;99.90
3005;DHT22;1512;51.486;6.610;2023-03-29T21:39:00;11.90;99.90
3005;DHT22;1512;51.486;6.610;2023-03-29T21:43:09;11.90;99.90
3005;DHT22;1512;51.486;6.610;2023-03-29T21:47:17;11.80;99.90
3005;DHT22;1512;51.486;6.610;2023-03-29T21:51:26;11.80;99.90
3005;DHT22;1512;51.486;6.610;2023-03-29T21:55:35;11.80;1.00
3005;DHT22;1512;51.486;6.610;2023-03-29T21:59:43;11.80;1.00
3005;DHT22;1512;51.486;6.610;2023-03-29T22:03:52;11.80;1.00
3005;DHT22;1512;51.486;6.610;2023-03-29T22:08:01;11.80;1.00
3005;DHT22;1512;51.486;6.610;2023-03-29T22:12:10;11.80;1.00
3005;DHT22;1512;51.486;6.610;2023-03-29T22:16:19;11.80;1.00
3005;DHT22;1512;51.486;6.610;2023-03-29T22:20:28;11.70;1.00
3005;DHT22;1512;51.486;6.610;2023-03-29T22:24:36;11.70;1.00
3005;DHT22;1512;51.486;6.610;2023-03-29T22:28:45;11.70;1.00
3005;DHT22;1512;51.486;6.610;2023-03-29T22:32:54;11.70;1.00
3005;DHT22;1512;51.486;6.610;2023-03-29T22:37:03;11.70;1.00
3005;DHT22;1512;51.486;6.610;2023-03-29T22:41:13;11.70;1.00
3005;DHT22;1512;51.486;6.610;2023-03-29T22:45:22;11.70;1.00
3005;DHT22;1512;51.486;6.610;2023-03-29T22:49:31;11.70;1.00
3005;DHT22;1512;51.486;6.610;2023-03-29T22:53:39;11.60;1.00
3005;DHT22;1512;51.486;6.610;2023-03-29T22:57:48;11.60;1.00
3005;DHT22;1512;51.486;6.610;2023-03-29T23:01:57;11.60;1.00
3005;DHT22;1512;51.486;6.610;2023-03-29T23:06:06;11.60;99.90
3005;DHT22;1512;51.486;6.610;2023-03-29T23:10:15;11.50;99.90
3005;DHT22;1512;51.486;6.610;2023-03-29T23:14:24;11.40;99.90
3005;DHT22;1512;51.486;6.610;2023-03-29T23:18:32;11.40;99.90
3005;DHT22;1512;51.486;6.610;2023-03-29T23:22:43;11.40;99.90
3005;DHT22;1512;51.486;6.610;2023-03-29T23:26:52;11.40;99.90
3005;DHT22;1512;51.486;6.610;2023-03-29T23:31:04;11.40;99.90
3005;DHT22;1512;51.486;6.610;2023-03-29T23:35:16;11.40;99.90
3005;DHT22;1512;51.486;6.610;2023-03-29T23:39:24;11.40;99.90
3005;DHT22;1512;51.486;6.610;2023-03-29T23:43:35;11.40;99.90
3005;DHT22;1512;51.486;6.610;2023-03-29T23:47:46;11.40;99.90
3005;DHT22;1512;51.486;6.610;2023-03-29T23:51:55;11.40;99.90
3005;DHT22;1512;51.486;6.610;2023-03-29T23:56:05;11.40;99.90
